createdAt,value
2018-11-03T00:02:21.032Z,9.20
2018-11-03T00:04:49.634Z,9.30
2018-11-03T00:07:18.203Z,9.30
2018-11-03T00:09:46.870Z,9.30
2018-11-03T00:12:15.071Z,9.30
2018-11-03T00:14:43.346Z,9.30
2018-11-03T00:17:12.007Z,9.30
2018-11-03T00:19:40.334Z,9.30
2018-11-03T00:22:08.582Z,9.40
2018-11-03T00:24:37.086Z,9.40
2018-11-03T00:27:05.468Z,9.40
2018-11-03T00:29:33.822Z,9.40
2018-11-03T00:32:02.067Z,9.30
2018-11-03T00:34:30.345Z,9.30
2018-11-03T00:36:58.553Z,9.30
2018-11-03T00:39:26.804Z,9.30
2018-11-03T00:41:55.083Z,9.30
2018-11-03T00:44:23.624Z,9.20
2018-11-03T00:46:51.896Z,9.20
2018-11-03T00:49:20.567Z,9.20
2018-11-03T00:51:48.767Z,9.20
2018-11-03T00:54:17.239Z,9.10
2018-11-03T00:56:45.687Z,9.20
2018-11-03T00:59:14.447Z,9.20
2018-11-03T01:01:43.071Z,9.20
2018-11-03T01:04:11.619Z,9.20
2018-11-03T01:06:39.826Z,9.20
2018-11-03T01:09:08.903Z,9.20
2018-11-03T01:11:37.162Z,9.20
2018-11-03T01:14:05.392Z,9.30
2018-11-03T01:16:34.353Z,9.30
2018-11-03T01:19:02.714Z,9.20
2018-11-03T01:21:30.932Z,9.20
2018-11-03T01:23:59.188Z,9.20
2018-11-03T01:26:27.636Z,9.20
2018-11-03T01:28:56.311Z,9.20
2018-11-03T01:31:24.757Z,9.20
2018-11-03T01:33:52.955Z,9.20
2018-11-03T01:36:21.173Z,9.20
2018-11-03T01:41:14.815Z,9.30
2018-11-03T01:43:43.106Z,9.30
2018-11-03T01:46:11.345Z,9.30
2018-11-03T01:48:40.464Z,9.30
2018-11-03T01:51:09.701Z,9.30
2018-11-03T01:53:39.285Z,9.30
2018-11-03T01:56:09.216Z,9.30
2018-11-03T01:58:37.499Z,9.30
2018-11-03T02:01:07.140Z,9.20
2018-11-03T02:03:48.361Z,9.30
2018-11-03T02:06:17.560Z,9.30
2018-11-03T02:08:46.758Z,9.40
2018-11-03T02:11:15.031Z,9.40
2018-11-03T02:13:43.518Z,9.40
2018-11-03T02:16:11.937Z,9.40
2018-11-03T02:18:40.482Z,9.40
2018-11-03T02:21:08.831Z,9.40
2018-11-03T02:23:37.073Z,9.40
2018-11-03T02:26:05.756Z,9.30
2018-11-03T02:28:34.143Z,9.40
2018-11-03T02:31:02.482Z,9.40
2018-11-03T02:33:31.302Z,9.50
2018-11-03T02:36:00.199Z,9.50
2018-11-03T02:38:29.233Z,9.60
2018-11-03T02:40:57.607Z,9.50
2018-11-03T02:43:25.963Z,9.50
2018-11-03T02:45:54.524Z,9.40
2018-11-03T02:48:23.000Z,9.40
2018-11-03T02:50:51.356Z,9.50
2018-11-03T02:53:19.606Z,9.40
2018-11-03T02:55:48.720Z,9.50
2018-11-03T02:58:16.988Z,9.50
2018-11-03T03:00:45.915Z,9.50
2018-11-03T03:03:14.981Z,9.50
2018-11-03T03:05:43.283Z,9.50
2018-11-03T03:08:11.928Z,9.50
2018-11-03T03:10:40.190Z,9.40
2018-11-03T03:13:08.415Z,9.40
2018-11-03T03:15:36.667Z,9.50
2018-11-03T03:18:05.844Z,9.50
2018-11-03T03:20:34.084Z,9.50
2018-11-03T03:23:02.401Z,9.40
2018-11-03T03:25:31.327Z,9.40
2018-11-03T03:27:59.531Z,9.50
2018-11-03T03:30:28.269Z,9.50
2018-11-03T03:32:57.023Z,9.60
2018-11-03T03:35:25.251Z,9.50
2018-11-03T03:37:53.496Z,9.40
2018-11-03T03:40:21.710Z,9.50
2018-11-03T03:42:50.656Z,9.40
2018-11-03T03:45:18.919Z,9.40
2018-11-03T03:47:47.259Z,9.40
2018-11-03T03:50:15.495Z,9.40
2018-11-03T03:52:43.749Z,9.40
2018-11-03T03:55:12.006Z,9.40
2018-11-03T03:57:40.688Z,9.40
2018-11-03T04:00:10.672Z,9.30
2018-11-03T04:02:39.460Z,9.30
2018-11-03T04:05:08.203Z,9.30
2018-11-03T04:07:37.055Z,9.20
2018-11-03T04:10:06.287Z,9.30
2018-11-03T04:15:04.527Z,9.40
2018-11-03T04:17:33.157Z,9.40
2018-11-03T04:20:01.592Z,9.40
2018-11-03T04:22:29.880Z,9.30
2018-11-03T04:24:58.194Z,9.30
2018-11-03T04:27:26.478Z,9.30
2018-11-03T04:29:56.755Z,9.30
2018-11-03T04:32:25.031Z,9.30
2018-11-03T04:34:53.504Z,9.30
2018-11-03T04:37:21.951Z,9.30
2018-11-03T04:39:50.176Z,9.40
2018-11-03T04:42:18.467Z,9.40
2018-11-03T04:44:46.703Z,9.40
2018-11-03T04:47:15.030Z,9.40
2018-11-03T04:49:43.311Z,9.30
2018-11-03T04:52:11.583Z,9.40
2018-11-03T04:54:39.930Z,9.40
2018-11-03T04:57:08.550Z,9.40
2018-11-03T04:59:37.347Z,9.40
2018-11-03T05:02:06.070Z,9.40
2018-11-03T05:04:34.504Z,9.40
2018-11-03T05:07:02.768Z,9.30
2018-11-03T05:09:31.639Z,9.20
2018-11-03T05:11:59.891Z,9.30
2018-11-03T05:14:28.540Z,9.30
2018-11-03T05:16:57.318Z,9.30
2018-11-03T05:19:25.650Z,9.30
2018-11-03T05:21:53.950Z,9.30
2018-11-03T05:24:22.224Z,9.30
2018-11-03T05:26:51.138Z,9.30
2018-11-03T05:29:19.388Z,9.20
2018-11-03T05:31:47.643Z,9.10
2018-11-03T05:34:15.842Z,9.20
2018-11-03T05:36:44.043Z,9.10
2018-11-03T05:39:12.751Z,9.10
2018-11-03T05:41:41.677Z,9.20
2018-11-03T05:44:10.122Z,9.20
2018-11-03T05:46:39.043Z,9.20
2018-11-03T05:49:07.411Z,9.20
2018-11-03T05:53:04.976Z,9.20
2018-11-03T05:55:33.984Z,9.20
2018-11-03T05:58:02.260Z,9.30
2018-11-03T06:00:30.989Z,9.30
2018-11-03T06:03:00.120Z,9.20
2018-11-03T06:05:28.319Z,9.20
2018-11-03T06:07:57.938Z,9.30
2018-11-03T06:10:26.168Z,9.30
2018-11-03T06:12:54.437Z,9.20
2018-11-03T06:15:23.078Z,9.20
2018-11-03T06:17:51.472Z,9.20
2018-11-03T06:20:19.886Z,9.30
2018-11-03T06:22:48.916Z,9.20
2018-11-03T06:25:18.537Z,9.30
2018-11-03T06:27:47.217Z,9.30
2018-11-03T06:30:15.462Z,9.30
2018-11-03T06:32:43.955Z,9.30
2018-11-03T06:35:12.377Z,9.30
2018-11-03T06:37:40.573Z,9.20
2018-11-03T06:40:09.402Z,9.20
2018-11-03T06:42:38.220Z,9.30
2018-11-03T06:45:07.555Z,9.30
2018-11-03T06:47:35.946Z,9.30
2018-11-03T06:50:05.615Z,9.30
2018-11-03T06:52:33.881Z,9.30
2018-11-03T06:55:02.192Z,9.40
2018-11-03T06:57:31.052Z,9.50
2018-11-03T06:59:59.783Z,9.50
2018-11-03T07:02:28.852Z,9.40
2018-11-03T07:04:57.722Z,9.40
2018-11-03T07:07:26.671Z,9.50
2018-11-03T07:09:54.931Z,9.50
2018-11-03T07:12:23.832Z,9.60
2018-11-03T07:14:52.336Z,9.60
2018-11-03T07:17:21.103Z,9.50
2018-11-03T07:19:49.711Z,9.60
2018-11-03T07:22:18.808Z,9.50
2018-11-03T07:24:47.076Z,9.60
2018-11-03T07:27:15.334Z,9.70
2018-11-03T07:29:43.743Z,9.80
2018-11-03T07:32:11.902Z,9.80
2018-11-03T07:34:40.239Z,9.80
2018-11-03T07:37:08.539Z,9.80
2018-11-03T07:39:37.135Z,9.90
2018-11-03T07:42:05.806Z,9.80
2018-11-03T07:44:34.091Z,10.00
2018-11-03T07:47:02.367Z,10.10
2018-11-03T07:49:30.950Z,10.20
2018-11-03T07:51:59.088Z,10.40
2018-11-03T07:54:27.419Z,10.40
2018-11-03T07:56:56.268Z,10.30
2018-11-03T07:59:25.078Z,10.60
2018-11-03T08:01:54.503Z,10.80
2018-11-03T08:04:23.065Z,11.10
2018-11-03T08:06:51.543Z,11.20
2018-11-03T08:09:20.331Z,11.10
2018-11-03T08:11:48.611Z,11.20
2018-11-03T08:14:17.154Z,11.20
2018-11-03T08:16:49.523Z,11.30
2018-11-03T08:19:17.739Z,11.30
2018-11-03T08:21:46.073Z,11.40
2018-11-03T08:24:14.963Z,11.50
2018-11-03T08:26:43.230Z,11.70
2018-11-03T08:29:11.451Z,11.90
2018-11-03T08:31:39.787Z,12.00
2018-11-03T08:34:08.006Z,11.90
2018-11-03T08:36:36.387Z,12.20
2018-11-03T08:39:05.959Z,12.10
2018-11-03T08:41:34.584Z,12.00
2018-11-03T08:44:02.967Z,12.00
2018-11-03T08:46:31.220Z,11.80
2018-11-03T08:48:59.621Z,12.10
2018-11-03T08:51:28.367Z,12.10
2018-11-03T08:53:56.558Z,12.10
2018-11-03T08:56:25.350Z,12.20
2018-11-03T08:58:54.110Z,12.30
2018-11-03T09:01:22.686Z,12.40
2018-11-03T09:03:51.299Z,12.40
2018-11-03T09:06:19.527Z,12.50
2018-11-03T09:08:48.077Z,12.80
2018-11-03T09:11:16.431Z,12.80
2018-11-03T09:13:44.634Z,13.00
2018-11-03T09:16:13.186Z,12.90
2018-11-03T09:18:41.726Z,12.90
2018-11-03T09:21:09.962Z,13.20
2018-11-03T09:23:38.221Z,13.30
2018-11-03T09:26:06.479Z,13.50
2018-11-03T09:28:34.699Z,13.50
2018-11-03T09:31:03.065Z,13.60
2018-11-03T09:33:31.312Z,13.40
2018-11-03T09:35:59.552Z,13.20
2018-11-03T09:38:27.895Z,13.40
2018-11-03T09:40:56.678Z,13.40
2018-11-03T09:43:25.022Z,13.40
2018-11-03T09:45:53.319Z,13.50
2018-11-03T09:48:21.763Z,13.60
2018-11-03T09:50:50.201Z,13.80
2018-11-03T09:53:18.471Z,13.80
2018-11-03T09:55:47.156Z,13.70
2018-11-03T09:58:16.306Z,13.60
2018-11-03T10:00:44.891Z,13.80
2018-11-03T10:03:13.307Z,14.10
2018-11-03T10:05:41.803Z,14.10
2018-11-03T10:08:10.894Z,14.30
2018-11-03T10:10:39.153Z,14.20
2018-11-03T10:13:07.421Z,14.40
2018-11-03T10:15:35.834Z,14.40
2018-11-03T10:18:04.759Z,14.50
2018-11-03T10:20:32.975Z,14.40
2018-11-03T10:23:01.309Z,14.40
2018-11-03T10:25:29.536Z,14.50
2018-11-03T10:27:57.807Z,14.50
2018-11-03T10:30:26.374Z,14.20
2018-11-03T10:32:54.643Z,14.20
2018-11-03T10:35:22.977Z,14.40
2018-11-03T10:37:51.515Z,14.30
2018-11-03T10:40:20.179Z,14.20
2018-11-03T10:42:48.702Z,14.30
2018-11-03T10:45:17.252Z,14.40
2018-11-03T10:47:45.758Z,14.30
2018-11-03T10:50:16.351Z,14.40
2018-11-03T10:52:45.251Z,14.20
2018-11-03T10:55:15.165Z,14.50
2018-11-03T10:57:43.900Z,14.60
2018-11-03T11:00:18.959Z,14.70
2018-11-03T11:02:55.379Z,14.50
2018-11-03T11:05:29.276Z,14.50
2018-11-03T11:08:03.196Z,14.40
2018-11-03T11:10:36.814Z,14.40
2018-11-03T11:13:08.910Z,14.40
2018-11-03T11:15:37.504Z,14.40
2018-11-03T11:18:06.328Z,14.50
2018-11-03T11:20:34.732Z,14.40
2018-11-03T11:23:03.069Z,14.40
2018-11-03T11:25:31.486Z,14.40
2018-11-03T11:27:59.795Z,14.30
2018-11-03T11:30:33.467Z,14.50
2018-11-03T11:33:01.977Z,14.60
2018-11-03T11:35:30.179Z,14.60
2018-11-03T11:37:58.856Z,14.40
2018-11-03T11:40:27.260Z,14.40
2018-11-03T11:42:55.526Z,14.50
2018-11-03T11:45:23.789Z,14.30
2018-11-03T11:47:52.584Z,14.40
2018-11-03T11:50:20.900Z,14.60
2018-11-03T11:52:49.241Z,14.50
2018-11-03T11:55:17.603Z,14.50
2018-11-03T11:57:45.835Z,14.60
2018-11-03T12:00:14.512Z,14.50
2018-11-03T12:02:43.226Z,14.60
2018-11-03T12:05:12.145Z,14.60
2018-11-03T12:07:41.081Z,14.70
2018-11-03T12:10:09.515Z,14.40
2018-11-03T12:12:37.603Z,14.50
2018-11-03T12:15:06.986Z,14.40
2018-11-03T12:17:35.570Z,14.60
2018-11-03T12:20:03.846Z,14.70
2018-11-03T12:22:32.093Z,14.60
2018-11-03T12:25:00.447Z,14.60
2018-11-03T12:27:28.687Z,14.50
2018-11-03T12:29:56.996Z,14.40
2018-11-03T12:32:25.635Z,14.20
2018-11-03T12:34:53.875Z,14.40
2018-11-03T12:37:22.107Z,14.30
2018-11-03T12:39:50.375Z,14.40
2018-11-03T12:42:18.580Z,14.40
2018-11-03T12:44:46.846Z,14.50
2018-11-03T12:47:15.345Z,14.60
2018-11-03T12:49:43.559Z,14.50
2018-11-03T12:52:11.751Z,14.40
2018-11-03T12:54:39.968Z,14.50
2018-11-03T12:57:08.437Z,14.40
2018-11-03T12:59:37.055Z,14.40
2018-11-03T13:02:06.367Z,14.50
2018-11-03T13:04:34.900Z,14.70
2018-11-03T13:07:03.135Z,14.80
2018-11-03T13:09:31.650Z,14.70
2018-11-03T13:11:59.927Z,14.60
2018-11-03T13:14:28.139Z,14.70
2018-11-03T13:16:56.661Z,14.70
2018-11-03T13:19:24.947Z,14.60
2018-11-03T13:21:53.465Z,14.50
2018-11-03T13:24:21.694Z,14.40
2018-11-03T13:26:49.951Z,14.20
2018-11-03T13:29:18.439Z,14.20
2018-11-03T13:31:46.939Z,14.20
2018-11-03T13:34:15.716Z,14.20
2018-11-03T13:36:44.070Z,14.10
2018-11-03T13:41:32.760Z,14.10
2018-11-03T13:44:01.103Z,13.80
2018-11-03T13:46:29.849Z,13.80
2018-11-03T13:48:58.063Z,13.90
2018-11-03T13:51:26.323Z,13.90
2018-11-03T13:53:54.571Z,13.80
2018-11-03T13:56:23.046Z,13.70
2018-11-03T13:58:51.759Z,13.80
2018-11-03T14:01:20.012Z,13.80
2018-11-03T14:03:48.859Z,13.70
2018-11-03T14:06:17.104Z,13.70
2018-11-03T14:08:45.670Z,13.70
2018-11-03T14:11:13.948Z,13.50
2018-11-03T14:13:42.482Z,13.60
2018-11-03T14:16:10.715Z,13.70
2018-11-03T14:18:39.275Z,13.60
2018-11-03T14:21:07.501Z,13.60
2018-11-03T14:23:35.792Z,13.60
2018-11-03T14:26:04.771Z,13.60
2018-11-03T14:28:33.556Z,13.50
2018-11-03T14:31:02.054Z,13.40
2018-11-03T14:33:30.394Z,13.40
2018-11-03T14:35:58.505Z,13.40
2018-11-03T14:38:26.753Z,13.30
2018-11-03T14:40:56.309Z,13.10
2018-11-03T14:43:24.777Z,13.10
2018-11-03T14:45:54.525Z,13.10
2018-11-03T14:48:22.727Z,13.10
2018-11-03T14:50:51.008Z,13.20
2018-11-03T14:53:19.210Z,13.20
2018-11-03T14:55:48.275Z,13.00
2018-11-03T14:58:16.514Z,13.10
2018-11-03T15:00:45.083Z,13.00
2018-11-03T15:03:13.635Z,13.00
2018-11-03T15:05:41.835Z,12.90
2018-11-03T15:08:10.540Z,12.90
2018-11-03T15:10:39.004Z,12.70
2018-11-03T15:13:07.252Z,12.60
2018-11-03T15:15:36.015Z,12.60
2018-11-03T15:18:04.594Z,12.70
2018-11-03T15:20:33.054Z,12.50
2018-11-03T15:23:01.275Z,12.40
2018-11-03T15:25:30.051Z,12.40
2018-11-03T15:27:58.271Z,12.40
2018-11-03T15:30:26.943Z,12.40
2018-11-03T15:32:55.171Z,12.40
2018-11-03T15:35:23.811Z,12.30
2018-11-03T15:37:52.035Z,12.30
2018-11-03T15:40:20.289Z,12.20
2018-11-03T15:42:48.631Z,12.10
2018-11-03T15:45:17.808Z,12.20
2018-11-03T15:47:46.615Z,12.20
2018-11-03T15:50:15.392Z,12.10
2018-11-03T15:52:44.260Z,12.10
2018-11-03T15:55:12.593Z,12.10
2018-11-03T15:57:41.276Z,12.20
2018-11-03T16:00:13.392Z,12.10
2018-11-03T16:02:42.171Z,12.10
2018-11-03T16:05:10.642Z,12.20
2018-11-03T16:07:39.836Z,12.10
2018-11-03T16:10:09.179Z,12.20
2018-11-03T16:12:37.574Z,12.10
2018-11-03T16:15:07.060Z,12.00
2018-11-03T16:17:35.835Z,12.00
2018-11-03T16:20:04.221Z,12.00
2018-11-03T16:23:35.043Z,11.90
2018-11-03T16:26:03.345Z,11.90
2018-11-03T16:28:31.748Z,11.90
2018-11-03T16:31:00.447Z,11.80
2018-11-03T16:33:28.720Z,11.70
2018-11-03T16:35:57.187Z,11.70
2018-11-03T16:38:25.514Z,11.80
2018-11-03T16:40:53.750Z,11.80
2018-11-03T16:43:22.063Z,11.80
2018-11-03T16:45:50.471Z,11.70
2018-11-03T16:48:18.583Z,11.70
2018-11-03T16:50:46.818Z,11.70
2018-11-03T16:53:15.400Z,11.70
2018-11-03T16:55:44.187Z,11.60
2018-11-03T16:58:12.818Z,11.70
2018-11-03T17:00:41.245Z,11.60
2018-11-03T17:03:09.768Z,11.50
2018-11-03T17:05:38.032Z,11.60
2018-11-03T17:08:06.527Z,11.70
2018-11-03T17:10:34.783Z,11.60
2018-11-03T17:13:03.026Z,11.60
2018-11-03T17:15:31.309Z,11.50
2018-11-03T17:17:59.880Z,11.50
2018-11-03T17:20:28.607Z,11.60
2018-11-03T17:22:56.802Z,11.60
2018-11-03T17:25:25.143Z,11.60
2018-11-03T17:27:53.442Z,11.50
2018-11-03T17:30:22.235Z,11.50
2018-11-03T17:32:50.551Z,11.60
2018-11-03T17:35:18.952Z,11.60
2018-11-03T17:37:47.280Z,11.60
2018-11-03T17:40:16.187Z,11.60
2018-11-03T17:42:44.399Z,11.60
2018-11-03T17:45:13.237Z,11.50
2018-11-03T17:47:41.738Z,11.50
2018-11-03T17:50:11.967Z,11.60
2018-11-03T17:52:40.635Z,11.60
2018-11-03T17:55:09.996Z,11.40
2018-11-03T17:57:38.758Z,11.50
2018-11-03T18:00:11.013Z,11.50
2018-11-03T18:02:39.504Z,11.50
2018-11-03T18:05:08.159Z,11.50
2018-11-03T18:07:36.811Z,11.40
2018-11-03T18:10:06.076Z,11.40
2018-11-03T18:12:34.306Z,11.40
2018-11-03T18:15:02.547Z,11.40
2018-11-03T18:17:31.096Z,11.40
2018-11-03T18:19:59.409Z,11.30
2018-11-03T18:22:27.711Z,11.40
2018-11-03T18:24:55.988Z,11.40
2018-11-03T18:27:24.315Z,11.30
2018-11-03T18:29:52.933Z,11.40
2018-11-03T18:32:21.617Z,11.40
2018-11-03T18:34:49.889Z,11.50
2018-11-03T18:37:18.101Z,11.40
2018-11-03T18:39:46.571Z,11.40
2018-11-03T18:42:14.819Z,11.50
2018-11-03T18:44:43.159Z,11.50
2018-11-03T18:47:12.166Z,11.40
2018-11-03T18:49:40.420Z,11.40
2018-11-03T18:52:08.907Z,11.40
2018-11-03T18:54:37.176Z,11.40
2018-11-03T18:57:05.699Z,11.40
2018-11-03T18:59:34.687Z,11.30
2018-11-03T19:02:02.987Z,11.40
2018-11-03T19:04:31.829Z,11.40
2018-11-03T19:07:01.575Z,11.40
2018-11-03T19:09:30.307Z,11.40
2018-11-03T19:11:58.501Z,11.50
2018-11-03T19:14:26.770Z,11.50
2018-11-03T19:16:55.242Z,11.60
2018-11-03T19:19:23.484Z,11.50
2018-11-03T19:21:51.732Z,11.60
2018-11-03T19:24:20.098Z,11.50
2018-11-03T19:26:48.387Z,11.50
2018-11-03T19:29:16.734Z,11.60
2018-11-03T19:31:45.408Z,11.60
2018-11-03T19:34:13.735Z,11.50
2018-11-03T19:36:41.964Z,11.60
2018-11-03T19:39:10.991Z,11.50
2018-11-03T19:41:39.335Z,11.40
2018-11-03T19:44:07.755Z,11.40
2018-11-03T19:46:36.297Z,11.50
2018-11-03T19:49:04.625Z,11.60
2018-11-03T19:51:33.114Z,11.60
2018-11-03T19:54:01.324Z,11.60
2018-11-03T19:56:29.979Z,11.60
2018-11-03T19:58:58.721Z,11.70
2018-11-03T20:01:27.163Z,11.50
2018-11-03T20:03:55.831Z,11.50
2018-11-03T20:06:24.743Z,11.50
2018-11-03T20:08:53.255Z,11.60
2018-11-03T20:11:21.503Z,11.60
2018-11-03T20:13:49.851Z,11.50
2018-11-03T20:16:18.055Z,11.50
2018-11-03T20:18:46.639Z,11.40
2018-11-03T20:21:15.046Z,11.40
2018-11-03T20:23:43.559Z,11.50
2018-11-03T20:26:11.875Z,11.30
2018-11-03T20:28:40.327Z,11.30
2018-11-03T20:31:09.033Z,11.30
2018-11-03T20:33:37.346Z,11.30
2018-11-03T20:36:05.795Z,11.30
2018-11-03T20:38:34.025Z,11.30
2018-11-03T20:41:02.293Z,11.30
2018-11-03T20:43:30.575Z,11.30
2018-11-03T20:45:58.788Z,11.20
2018-11-03T20:48:27.047Z,11.10
2018-11-03T20:51:00.536Z,11.10
2018-11-03T20:53:29.119Z,11.10
2018-11-03T20:55:57.762Z,11.10
2018-11-03T20:58:26.393Z,11.00
2018-11-03T21:00:54.620Z,11.10
2018-11-03T21:03:23.334Z,11.00
2018-11-03T21:05:52.439Z,11.00
2018-11-03T21:08:20.855Z,11.00
2018-11-03T21:10:49.102Z,10.90
2018-11-03T21:13:17.343Z,11.00
2018-11-03T21:15:46.041Z,11.10
2018-11-03T21:18:14.804Z,11.20
2018-11-03T21:20:43.109Z,11.10
2018-11-03T21:23:12.162Z,11.10
2018-11-03T21:25:40.476Z,11.10
2018-11-03T21:28:08.738Z,11.10
2018-11-03T21:30:37.398Z,11.00
2018-11-03T21:33:06.067Z,11.10
2018-11-03T21:35:34.192Z,11.10
2018-11-03T21:38:02.488Z,11.00
2018-11-03T21:40:30.757Z,11.00
2018-11-03T21:42:59.413Z,10.90
2018-11-03T21:45:27.862Z,11.10
2018-11-03T21:47:56.102Z,11.20
2018-11-03T21:50:24.767Z,11.20
2018-11-03T21:52:53.235Z,11.10
2018-11-03T21:55:21.531Z,11.20
2018-11-03T21:57:49.859Z,11.30
2018-11-03T22:00:18.755Z,11.20
2018-11-03T22:02:47.992Z,11.00
2018-11-03T22:05:16.505Z,11.10
2018-11-03T22:07:45.073Z,11.10
2018-11-03T22:10:13.335Z,11.20
2018-11-03T22:12:42.619Z,11.30
2018-11-03T22:15:10.895Z,11.30
2018-11-03T22:17:39.464Z,11.30
2018-11-03T22:20:08.716Z,11.30
2018-11-03T22:22:37.131Z,11.20
2018-11-03T22:25:06.615Z,11.20
2018-11-03T22:27:35.079Z,11.20
2018-11-03T22:30:03.687Z,11.30
2018-11-03T22:32:32.372Z,11.30
2018-11-03T22:35:00.607Z,11.30
2018-11-03T22:37:28.859Z,11.30
2018-11-03T22:39:57.195Z,11.30
2018-11-03T22:42:25.433Z,11.20
2018-11-03T22:44:53.707Z,11.30
2018-11-03T22:47:23.100Z,11.30
2018-11-03T22:49:51.375Z,11.30
2018-11-03T22:52:19.612Z,11.30
2018-11-03T22:54:47.854Z,11.30
2018-11-03T22:57:16.734Z,11.30
2018-11-03T22:59:45.267Z,11.30
2018-11-03T23:02:13.599Z,11.10
2018-11-03T23:04:42.267Z,11.20
2018-11-03T23:07:11.283Z,11.20
2018-11-03T23:09:39.639Z,11.20
2018-11-03T23:12:08.427Z,11.20
2018-11-03T23:14:36.653Z,11.20
2018-11-03T23:17:05.312Z,11.30
2018-11-03T23:19:34.610Z,11.30
2018-11-03T23:22:02.857Z,11.20
2018-11-03T23:24:31.081Z,11.30
2018-11-03T23:26:59.348Z,11.30
2018-11-03T23:29:27.929Z,11.30
2018-11-03T23:31:57.414Z,11.20
2018-11-03T23:34:25.655Z,11.30
2018-11-03T23:36:53.968Z,11.30
2018-11-03T23:39:22.432Z,11.10
2018-11-03T23:41:50.675Z,11.20
2018-11-03T23:44:19.675Z,11.30
2018-11-03T23:46:47.897Z,11.30
2018-11-03T23:49:16.132Z,11.20
2018-11-03T23:51:44.446Z,11.20
2018-11-03T23:54:12.709Z,11.20
2018-11-03T23:56:40.994Z,11.20
2018-11-03T23:59:09.866Z,11.10
